createdAt,value
2019-05-03T00:01:42.238Z,71.55
2019-05-03T00:04:15.081Z,71.66
2019-05-03T00:06:46.704Z,71.65
2019-05-03T00:09:19.944Z,71.75
2019-05-03T00:11:52.929Z,71.72
2019-05-03T00:14:24.915Z,71.71
2019-05-03T00:16:55.893Z,71.68
2019-05-03T00:19:27.522Z,71.90
2019-05-03T00:21:58.829Z,72.22
2019-05-03T00:24:31.923Z,72.37
2019-05-03T00:27:02.880Z,72.89
2019-05-03T00:29:34.307Z,74.60
2019-05-03T00:32:05.911Z,76.21
2019-05-03T00:34:38.972Z,77.86
2019-05-03T00:37:12.596Z,77.96
2019-05-03T00:39:45.898Z,78.43
2019-05-03T00:42:17.210Z,78.64
2019-05-03T00:44:48.825Z,79.05
2019-05-03T00:47:22.212Z,79.00
2019-05-03T00:49:53.820Z,78.28
2019-05-03T00:52:25.105Z,77.55
2019-05-03T00:55:02.053Z,77.49
2019-05-03T00:57:34.539Z,76.89
2019-05-03T01:00:08.358Z,76.57
2019-05-03T01:02:42.211Z,76.53
2019-05-03T01:05:13.520Z,76.71
2019-05-03T01:07:44.748Z,76.70
2019-05-03T01:10:16.530Z,75.73
2019-05-03T01:12:47.695Z,75.86
2019-05-03T01:15:21.546Z,74.99
2019-05-03T01:17:53.795Z,74.52
2019-05-03T01:20:25.317Z,74.33
2019-05-03T01:22:57.075Z,74.03
2019-05-03T01:25:32.114Z,73.43
2019-05-03T01:28:01.942Z,73.18
2019-05-03T01:30:34.106Z,73.37
2019-05-03T01:33:05.711Z,72.83
2019-05-03T01:35:37.248Z,73.02
2019-05-03T01:38:09.181Z,72.61
2019-05-03T01:40:41.913Z,72.29
2019-05-03T01:43:14.076Z,72.29
2019-05-03T01:45:46.213Z,72.56
2019-05-03T01:48:21.589Z,72.63
2019-05-03T01:50:54.303Z,73.17
2019-05-03T01:53:26.941Z,73.06
2019-05-03T01:55:58.441Z,73.56
2019-05-03T01:58:31.917Z,73.45
2019-05-03T02:01:04.867Z,73.53
2019-05-03T02:03:35.854Z,74.45
2019-05-03T02:06:07.348Z,74.24
2019-05-03T02:08:39.122Z,74.70
2019-05-03T02:11:11.626Z,75.70
2019-05-03T02:13:43.747Z,77.07
2019-05-03T02:16:15.068Z,77.98
2019-05-03T02:18:46.428Z,78.28
2019-05-03T02:21:17.314Z,79.01
2019-05-03T02:23:48.785Z,79.08
2019-05-03T02:26:19.864Z,79.39
2019-05-03T02:28:52.726Z,79.46
2019-05-03T02:31:24.028Z,79.53
2019-05-03T02:33:55.225Z,79.60
2019-05-03T02:36:26.627Z,79.79
2019-05-03T02:38:57.932Z,80.37
2019-05-03T02:41:29.791Z,80.66
2019-05-03T02:44:01.609Z,80.63
2019-05-03T02:46:36.105Z,80.73
2019-05-03T02:49:10.713Z,79.42
2019-05-03T02:51:42.068Z,79.47
2019-05-03T02:54:15.677Z,79.85
2019-05-03T02:56:48.750Z,79.33
2019-05-03T02:59:20.179Z,79.30
2019-05-03T03:01:51.299Z,77.70
2019-05-03T03:04:25.838Z,77.18
2019-05-03T03:06:58.480Z,76.40
2019-05-03T03:09:30.537Z,76.50
2019-05-03T03:12:06.073Z,76.16
2019-05-03T03:14:38.469Z,75.83
2019-05-03T03:17:11.820Z,73.95
2019-05-03T03:19:46.327Z,73.16
2019-05-03T03:22:20.139Z,73.36
2019-05-03T03:24:57.372Z,73.03
2019-05-03T03:27:31.697Z,71.15
2019-05-03T03:30:07.819Z,71.40
2019-05-03T03:32:41.546Z,71.61
2019-05-03T03:35:21.288Z,72.25
2019-05-03T03:37:50.274Z,71.64
2019-05-03T03:40:25.235Z,71.44
2019-05-03T03:42:57.039Z,70.42
2019-05-03T03:45:28.546Z,71.80
2019-05-03T03:48:05.082Z,71.18
2019-05-03T03:50:36.983Z,70.03
2019-05-03T03:53:11.720Z,71.04
2019-05-03T03:55:46.293Z,70.21
2019-05-03T03:58:22.889Z,70.42
2019-05-03T04:00:51.139Z,70.43
2019-05-03T04:03:25.680Z,70.59
2019-05-03T04:05:56.111Z,70.93
2019-05-03T04:08:28.187Z,70.92
2019-05-03T04:10:59.820Z,71.36
2019-05-03T04:13:31.618Z,71.45
2019-05-03T04:16:05.537Z,71.14
2019-05-03T04:18:38.881Z,71.69
2019-05-03T04:21:11.253Z,72.15
2019-05-03T04:23:45.843Z,73.39
2019-05-03T04:26:17.960Z,71.98
2019-05-03T04:28:49.809Z,71.67
2019-05-03T04:31:26.093Z,71.63
2019-05-03T04:33:57.994Z,70.84
2019-05-03T04:36:29.588Z,71.29
2019-05-03T04:39:00.513Z,71.42
2019-05-03T04:41:35.542Z,71.65
2019-05-03T04:44:06.563Z,71.13
2019-05-03T04:46:38.458Z,70.52
2019-05-03T04:49:10.332Z,69.88
2019-05-03T04:51:41.621Z,70.44
2019-05-03T04:54:16.379Z,70.70
2019-05-03T04:56:47.657Z,71.36
2019-05-03T04:59:18.851Z,70.57
2019-05-03T05:01:50.287Z,70.69
2019-05-03T05:04:21.547Z,69.47
2019-05-03T05:06:55.358Z,69.54
2019-05-03T05:09:26.453Z,69.51
2019-05-03T05:11:57.788Z,68.97
2019-05-03T05:14:29.038Z,69.25
2019-05-03T05:17:00.425Z,68.90
2019-05-03T05:19:35.634Z,69.22
2019-05-03T05:22:07.607Z,68.26
2019-05-03T05:24:39.270Z,68.59
2019-05-03T05:27:14.482Z,68.74
2019-05-03T05:29:45.216Z,69.50
2019-05-03T05:32:16.638Z,68.66
2019-05-03T05:34:48.190Z,67.58
2019-05-03T05:37:19.591Z,66.76
2019-05-03T05:39:51.024Z,65.08
2019-05-03T05:42:22.249Z,63.61
2019-05-03T05:44:55.557Z,63.93
2019-05-03T05:47:28.456Z,62.79
2019-05-03T05:50:01.839Z,61.56
2019-05-03T05:52:34.654Z,61.27
2019-05-03T05:55:08.956Z,60.03
2019-05-03T05:57:41.585Z,60.20
2019-05-03T06:00:15.320Z,60.67
2019-05-03T06:02:46.819Z,60.45
2019-05-03T06:05:18.860Z,61.27
2019-05-03T06:07:51.945Z,61.13
2019-05-03T06:10:25.067Z,61.59
2019-05-03T06:12:58.185Z,61.89
2019-05-03T06:15:30.831Z,61.92
2019-05-03T06:18:05.780Z,61.26
2019-05-03T06:20:38.805Z,61.91
2019-05-03T06:23:11.298Z,62.37
2019-05-03T06:25:45.274Z,61.81
2019-05-03T06:28:20.844Z,62.27
2019-05-03T06:30:50.500Z,61.76
2019-05-03T06:33:24.346Z,61.70
2019-05-03T06:35:55.630Z,60.95
2019-05-03T06:38:27.096Z,60.39
2019-05-03T06:40:58.742Z,60.72
2019-05-03T06:43:30.459Z,60.24
2019-05-03T06:46:01.572Z,59.46
2019-05-03T06:48:34.803Z,60.01
2019-05-03T06:51:10.994Z,60.04
2019-05-03T06:53:41.788Z,59.66
2019-05-03T06:56:14.741Z,58.66
2019-05-03T06:58:47.030Z,58.76
2019-05-03T07:01:19.743Z,59.52
2019-05-03T07:03:54.899Z,59.98
2019-05-03T07:06:37.362Z,59.08
2019-05-03T07:09:02.925Z,59.29
2019-05-03T07:11:38.046Z,58.52
2019-05-03T07:14:13.059Z,56.95
2019-05-03T07:16:44.497Z,56.80
2019-05-03T07:19:15.628Z,56.44
2019-05-03T07:21:47.137Z,56.65
2019-05-03T07:24:18.009Z,56.64
2019-05-03T07:26:49.609Z,56.11
2019-05-03T07:29:22.537Z,55.62
2019-05-03T07:31:54.957Z,54.82
2019-05-03T07:34:27.462Z,54.15
2019-05-03T07:36:58.674Z,52.33
2019-05-03T07:39:29.833Z,52.84
2019-05-03T07:42:00.849Z,51.18
2019-05-03T07:44:31.850Z,51.89
2019-05-03T07:47:04.832Z,51.44
2019-05-03T07:49:35.826Z,52.74
2019-05-03T07:52:06.971Z,49.58
2019-05-03T07:54:38.289Z,49.68
2019-05-03T07:57:11.156Z,48.44
2019-05-03T07:59:42.032Z,48.59
2019-05-03T08:02:14.464Z,49.24
2019-05-03T08:04:45.650Z,49.92
2019-05-03T08:07:22.398Z,48.48
2019-05-03T08:09:49.495Z,48.19
2019-05-03T08:12:21.010Z,49.51
2019-05-03T08:14:54.985Z,46.33
2019-05-03T08:17:25.960Z,45.07
2019-05-03T08:19:58.129Z,46.13
2019-05-03T08:22:29.569Z,47.03
2019-05-03T08:25:00.610Z,46.57
2019-05-03T08:27:31.633Z,47.93
2019-05-03T08:30:11.132Z,46.12
2019-05-03T08:32:45.845Z,46.55
2019-05-03T08:35:21.728Z,46.58
2019-05-03T08:37:54.806Z,47.03
2019-05-03T08:40:27.582Z,47.50
2019-05-03T08:43:02.124Z,47.25
2019-05-03T08:45:34.686Z,48.18
2019-05-03T08:48:06.252Z,48.07
2019-05-03T08:50:37.036Z,47.99
2019-05-03T08:53:07.787Z,48.23
2019-05-03T08:55:38.845Z,47.90
2019-05-03T08:58:10.064Z,47.57
2019-05-03T09:00:42.240Z,45.84
2019-05-03T09:03:14.402Z,46.98
2019-05-03T09:05:46.237Z,46.75
2019-05-03T09:08:19.020Z,47.26
2019-05-03T09:10:54.544Z,46.58
2019-05-03T09:13:25.819Z,45.19
2019-05-03T09:15:57.226Z,46.40
2019-05-03T09:21:27.191Z,45.50
2019-05-03T09:23:59.816Z,43.52
2019-05-03T09:26:31.456Z,42.16
2019-05-03T09:29:03.028Z,43.26
2019-05-03T09:31:39.528Z,42.72
2019-05-03T09:34:12.196Z,41.71
2019-05-03T09:36:44.855Z,41.30
2019-05-03T09:39:17.807Z,41.58
2019-05-03T09:41:49.293Z,41.69
2019-05-03T09:44:21.996Z,41.39
2019-05-03T09:46:54.976Z,40.53
2019-05-03T09:49:28.035Z,41.03
2019-05-03T09:51:59.790Z,41.10
2019-05-03T09:54:34.776Z,40.78
2019-05-03T09:57:07.758Z,41.67
2019-05-03T09:59:53.301Z,41.28
2019-05-03T10:02:15.154Z,40.98
2019-05-03T10:04:48.139Z,39.75
2019-05-03T10:07:19.698Z,40.26
2019-05-03T10:09:55.049Z,41.18
2019-05-03T10:12:26.010Z,40.64
2019-05-03T10:14:57.995Z,40.57
2019-05-03T10:17:31.218Z,41.26
2019-05-03T10:20:07.043Z,39.79
2019-05-03T10:22:38.634Z,39.74
2019-05-03T10:25:12.385Z,40.30
2019-05-03T10:27:45.967Z,38.00
2019-05-03T10:30:21.033Z,38.94
2019-05-03T10:32:55.189Z,39.41
2019-05-03T10:35:26.739Z,40.66
2019-05-03T10:37:58.392Z,40.21
2019-05-03T10:40:30.593Z,41.15
2019-05-03T10:43:01.926Z,40.28
2019-05-03T10:45:35.511Z,40.13
2019-05-03T10:48:08.920Z,39.72
2019-05-03T10:50:40.457Z,40.17
2019-05-03T10:53:15.394Z,40.06
2019-05-03T10:55:51.771Z,39.36
2019-05-03T10:58:25.040Z,38.25
2019-05-03T11:00:56.846Z,37.75
2019-05-03T11:03:29.086Z,36.51
2019-05-03T11:06:02.218Z,36.25
2019-05-03T11:08:33.645Z,36.53
2019-05-03T11:11:06.698Z,37.20
2019-05-03T11:13:38.643Z,37.18
2019-05-03T11:16:10.177Z,35.92
2019-05-03T11:18:41.460Z,33.09
2019-05-03T11:21:14.428Z,34.16
2019-05-03T11:23:47.914Z,34.41
2019-05-03T11:26:21.303Z,34.66
2019-05-03T11:28:59.250Z,36.36
2019-05-03T11:31:29.163Z,36.77
2019-05-03T11:34:03.834Z,36.78
2019-05-03T11:36:37.215Z,37.76
2019-05-03T11:39:08.358Z,38.04
2019-05-03T11:41:44.957Z,37.17
2019-05-03T11:44:19.485Z,37.66
2019-05-03T11:46:54.971Z,36.77
2019-05-03T11:49:27.481Z,37.47
2019-05-03T11:51:58.978Z,35.46
2019-05-03T11:54:31.646Z,34.07
2019-05-03T11:57:06.315Z,33.97
2019-05-03T11:59:37.970Z,33.80
2019-05-03T12:02:12.491Z,35.58
2019-05-03T12:04:45.955Z,36.87
2019-05-03T12:07:18.890Z,36.27
2019-05-03T12:09:50.674Z,38.06
2019-05-03T12:12:24.487Z,35.87
2019-05-03T12:14:57.396Z,34.28
2019-05-03T12:17:50.461Z,33.53
2019-05-03T12:20:17.992Z,34.06
2019-05-03T12:22:48.917Z,34.13
2019-05-03T12:25:21.449Z,33.75
2019-05-03T12:27:52.422Z,32.69
2019-05-03T12:30:27.485Z,31.37
2019-05-03T12:32:57.134Z,32.25
2019-05-03T12:35:30.183Z,32.68
2019-05-03T12:38:05.334Z,32.95
2019-05-03T12:40:36.438Z,33.47
2019-05-03T12:43:07.939Z,33.54
2019-05-03T12:45:40.460Z,33.02
2019-05-03T12:48:12.380Z,32.95
2019-05-03T12:50:47.215Z,33.72
2019-05-03T12:53:22.062Z,33.30
2019-05-03T12:55:53.691Z,34.09
2019-05-03T12:58:27.594Z,33.36
2019-05-03T13:01:00.521Z,33.24
2019-05-03T13:03:35.446Z,33.06
2019-05-03T13:06:07.462Z,33.45
2019-05-03T13:08:41.906Z,33.21
2019-05-03T13:11:13.452Z,32.81
2019-05-03T13:13:45.416Z,33.50
2019-05-03T13:16:18.317Z,33.54
2019-05-03T13:18:51.177Z,33.74
2019-05-03T13:21:22.377Z,32.53
2019-05-03T13:23:54.779Z,32.70
2019-05-03T13:26:27.125Z,32.05
2019-05-03T13:28:59.771Z,34.73
2019-05-03T13:31:34.653Z,33.32
2019-05-03T13:34:06.809Z,33.51
2019-05-03T13:36:39.561Z,32.18
2019-05-03T13:39:14.416Z,30.87
2019-05-03T13:41:45.555Z,30.70
2019-05-03T13:44:16.832Z,30.44
2019-05-03T13:46:48.078Z,31.17
2019-05-03T13:49:19.465Z,32.28
2019-05-03T13:51:51.177Z,30.92
2019-05-03T13:54:23.045Z,31.33
2019-05-03T13:56:55.186Z,30.77
2019-05-03T13:59:26.764Z,30.71
2019-05-03T14:02:11.509Z,31.75
2019-05-03T14:04:30.861Z,31.05
2019-05-03T14:07:01.765Z,30.70
2019-05-03T14:09:34.737Z,32.08
2019-05-03T14:12:07.615Z,30.05
2019-05-03T14:14:40.373Z,30.39
2019-05-03T14:17:11.662Z,30.05
2019-05-03T14:19:45.162Z,30.85
2019-05-03T14:22:16.061Z,30.81
2019-05-03T14:24:47.269Z,29.91
2019-05-03T14:27:18.590Z,30.49
2019-05-03T14:29:49.945Z,31.48
2019-05-03T14:32:27.611Z,30.92
2019-05-03T14:34:54.755Z,31.17
2019-05-03T14:37:27.188Z,32.40
2019-05-03T14:39:58.499Z,30.89
2019-05-03T14:42:29.606Z,30.58
2019-05-03T14:45:00.780Z,31.50
2019-05-03T14:47:31.780Z,30.97
2019-05-03T14:50:05.476Z,31.50
2019-05-03T14:52:36.133Z,33.20
2019-05-03T14:55:09.852Z,31.82
2019-05-03T14:57:46.689Z,32.13
2019-05-03T15:00:24.999Z,31.35
2019-05-03T15:03:02.094Z,31.46
2019-05-03T15:05:38.666Z,31.69
2019-05-03T15:08:15.759Z,30.88
2019-05-03T15:10:47.991Z,31.30
2019-05-03T15:13:19.045Z,31.31
2019-05-03T15:15:50.389Z,31.65
2019-05-03T15:18:21.700Z,31.48
2019-05-03T15:20:54.909Z,31.56
2019-05-03T15:23:26.972Z,32.35
2019-05-03T15:25:58.108Z,31.58
2019-05-03T15:28:29.804Z,32.66
2019-05-03T15:31:01.696Z,31.73
2019-05-03T15:33:32.836Z,31.34
2019-05-03T15:36:05.222Z,31.36
2019-05-03T15:38:41.997Z,31.72
2019-05-03T15:41:14.670Z,31.21
2019-05-03T15:43:48.601Z,31.35
2019-05-03T15:46:22.256Z,31.88
2019-05-03T15:48:56.043Z,31.04
2019-05-03T15:51:28.067Z,30.11
2019-05-03T15:54:00.075Z,30.70
2019-05-03T15:56:31.811Z,30.25
2019-05-03T15:59:04.462Z,30.06
2019-05-03T16:01:36.154Z,30.54
2019-05-03T16:04:07.894Z,30.22
2019-05-03T16:06:39.621Z,31.13
2019-05-03T16:09:12.811Z,31.73
2019-05-03T16:11:45.108Z,32.12
2019-05-03T16:14:17.072Z,32.16
2019-05-03T16:16:48.970Z,32.34
2019-05-03T16:19:20.402Z,32.20
2019-05-03T16:21:51.868Z,31.84
2019-05-03T16:24:24.913Z,32.75
2019-05-03T16:26:57.847Z,33.49
2019-05-03T16:29:38.209Z,33.21
2019-05-03T16:32:11.973Z,34.25
2019-05-03T16:34:45.541Z,33.67
2019-05-03T16:37:16.579Z,33.18
2019-05-03T16:39:48.012Z,33.98
2019-05-03T16:42:18.941Z,33.93
2019-05-03T16:44:50.587Z,33.66
2019-05-03T16:47:21.731Z,33.27
2019-05-03T16:49:52.723Z,33.17
2019-05-03T16:52:25.651Z,33.17
2019-05-03T16:54:56.931Z,33.45
2019-05-03T16:57:28.213Z,34.23
2019-05-03T16:59:59.523Z,33.26
2019-05-03T17:02:30.579Z,34.05
2019-05-03T17:05:04.800Z,34.09
2019-05-03T17:07:37.547Z,34.63
2019-05-03T17:10:12.070Z,34.36
2019-05-03T17:12:43.059Z,33.75
2019-05-03T17:15:15.124Z,34.54
2019-05-03T17:17:46.817Z,34.64
2019-05-03T17:20:18.300Z,34.65
2019-05-03T17:22:49.371Z,34.45
2019-05-03T17:25:20.915Z,34.72
2019-05-03T17:27:52.099Z,35.10
2019-05-03T17:30:32.648Z,35.04
2019-05-03T17:32:56.131Z,34.86
2019-05-03T17:35:27.590Z,34.72
2019-05-03T17:38:01.731Z,35.44
2019-05-03T17:40:34.948Z,35.12
2019-05-03T17:43:24.419Z,35.63
2019-05-03T17:46:25.405Z,35.81
2019-05-03T17:49:12.379Z,36.11
2019-05-03T17:51:56.747Z,37.07
2019-05-03T17:54:41.125Z,36.84
2019-05-03T17:57:27.550Z,36.93
2019-05-03T18:00:14.867Z,37.82
2019-05-03T18:02:51.618Z,37.69
2019-05-03T18:05:25.306Z,37.86
2019-05-03T18:08:02.619Z,38.18
2019-05-03T18:10:37.498Z,38.48
2019-05-03T18:13:18.515Z,39.10
2019-05-03T18:16:06.708Z,39.04
2019-05-03T18:18:58.627Z,38.88
2019-05-03T18:21:46.051Z,38.94
2019-05-03T18:24:25.931Z,39.06
2019-05-03T18:26:58.363Z,39.08
2019-05-03T18:29:42.700Z,39.67
2019-05-03T18:32:27.004Z,39.14
2019-05-03T18:35:15.293Z,39.92
2019-05-03T18:37:55.604Z,40.36
2019-05-03T18:40:38.562Z,40.47
2019-05-03T18:43:34.583Z,40.41
2019-05-03T18:46:21.483Z,40.77
2019-05-03T18:49:07.783Z,42.15
2019-05-03T18:51:50.762Z,43.90
2019-05-03T18:54:32.602Z,43.90
2019-05-03T18:57:25.534Z,44.38
2019-05-03T19:00:02.252Z,45.17
2019-05-03T19:02:39.779Z,45.19
2019-05-03T19:05:17.284Z,46.35
2019-05-03T19:08:00.059Z,46.87
2019-05-03T19:10:41.179Z,46.69
2019-05-03T19:13:20.789Z,47.14
2019-05-03T19:16:09.803Z,47.88
2019-05-03T19:18:47.179Z,48.04
2019-05-03T19:21:26.044Z,48.57
2019-05-03T19:24:09.003Z,48.01
2019-05-03T19:26:55.779Z,48.02
2019-05-03T19:29:31.802Z,48.64
2019-05-03T19:32:04.593Z,48.90
2019-05-03T19:34:51.312Z,49.11
2019-05-03T19:37:27.137Z,48.81
2019-05-03T19:39:57.234Z,48.84
2019-05-03T19:42:29.739Z,48.98
2019-05-03T19:45:00.562Z,49.96
2019-05-03T19:47:45.786Z,49.33
2019-05-03T19:50:31.748Z,51.10
2019-05-03T19:53:14.485Z,49.73
2019-05-03T19:55:56.517Z,50.89
2019-05-03T19:58:27.578Z,50.27
2019-05-03T20:01:06.939Z,49.47
2019-05-03T20:03:54.516Z,49.43
2019-05-03T20:06:31.660Z,49.62
2019-05-03T20:09:09.087Z,49.99
2019-05-03T20:11:46.283Z,50.36
2019-05-03T20:14:17.634Z,49.45
2019-05-03T20:19:51.362Z,49.89
2019-05-03T20:22:29.354Z,51.04
2019-05-03T20:25:01.793Z,51.38
2019-05-03T20:27:36.579Z,51.61
2019-05-03T20:30:09.471Z,51.84
2019-05-03T20:32:41.219Z,52.33
2019-05-03T20:35:18.752Z,52.23
2019-05-03T20:37:47.533Z,52.20
2019-05-03T20:40:28.471Z,52.00
2019-05-03T20:43:17.244Z,52.70
2019-05-03T20:46:05.432Z,52.66
2019-05-03T20:48:45.471Z,53.06
2019-05-03T20:51:17.787Z,53.68
2019-05-03T20:53:48.123Z,53.95
2019-05-03T20:56:24.596Z,54.05
2019-05-03T20:58:57.071Z,54.72
2019-05-03T21:01:28.877Z,55.11
2019-05-03T21:04:00.747Z,54.83
2019-05-03T21:06:35.709Z,54.21
2019-05-03T21:09:07.786Z,53.77
2019-05-03T21:11:40.065Z,53.60
2019-05-03T21:14:15.574Z,53.56
2019-05-03T21:16:48.388Z,55.97
2019-05-03T21:19:21.163Z,54.44
2019-05-03T21:21:55.071Z,55.05
2019-05-03T21:24:28.148Z,54.25
2019-05-03T21:26:59.858Z,54.53
2019-05-03T21:29:34.942Z,54.92
2019-05-03T21:32:06.745Z,54.99
2019-05-03T21:34:37.947Z,55.38
2019-05-03T21:37:10.426Z,55.79
2019-05-03T21:39:42.762Z,55.85
2019-05-03T21:42:15.170Z,57.07
2019-05-03T21:44:47.422Z,57.79
2019-05-03T21:47:21.244Z,57.63
2019-05-03T21:49:53.868Z,57.76
2019-05-03T21:52:24.985Z,57.40
2019-05-03T21:54:57.121Z,57.96
2019-05-03T21:57:28.252Z,57.46
2019-05-03T21:59:59.200Z,57.92
2019-05-03T22:02:31.265Z,57.86
2019-05-03T22:05:02.781Z,58.24
2019-05-03T22:07:35.070Z,58.32
2019-05-03T22:10:08.911Z,58.83
2019-05-03T22:12:39.991Z,59.02
2019-05-03T22:15:12.392Z,59.75
2019-05-03T22:17:45.454Z,59.95
2019-05-03T22:20:19.504Z,59.45
2019-05-03T22:22:50.880Z,59.31
2019-05-03T22:25:24.417Z,59.79
2019-05-03T22:27:55.252Z,59.69
2019-05-03T22:30:26.836Z,59.90
2019-05-03T22:32:57.490Z,59.93
2019-05-03T22:35:28.325Z,60.15
2019-05-03T22:37:58.826Z,60.13
2019-05-03T22:40:29.363Z,59.49
2019-05-03T22:43:01.474Z,59.15
2019-05-03T22:45:34.883Z,59.71
2019-05-03T22:48:06.803Z,59.27
2019-05-03T22:50:39.676Z,58.70
2019-05-03T22:53:10.837Z,57.78
2019-05-03T22:55:42.772Z,58.07
2019-05-03T22:58:13.110Z,58.10
2019-05-03T23:00:44.554Z,58.16
2019-05-03T23:03:19.079Z,57.63
2019-05-03T23:05:50.833Z,58.55
2019-05-03T23:08:22.433Z,59.22
2019-05-03T23:10:54.654Z,58.76
2019-05-03T23:13:26.970Z,58.80
2019-05-03T23:15:59.509Z,58.87
2019-05-03T23:18:32.827Z,57.86
2019-05-03T23:21:06.489Z,59.41
2019-05-03T23:23:40.160Z,58.81
2019-05-03T23:26:11.450Z,59.42
2019-05-03T23:28:44.589Z,59.84
2019-05-03T23:31:16.757Z,60.19
2019-05-03T23:33:50.042Z,60.64
2019-05-03T23:36:32.698Z,60.97
2019-05-03T23:38:55.088Z,59.99
2019-05-03T23:41:27.284Z,60.10
2019-05-03T23:43:58.575Z,60.76
2019-05-03T23:46:31.414Z,59.97
2019-05-03T23:49:03.345Z,59.53
2019-05-03T23:51:36.100Z,61.82
2019-05-03T23:54:07.568Z,60.64
2019-05-03T23:56:38.268Z,60.15
2019-05-03T23:59:10.151Z,60.87
